Latest Coastal Weather Observations for Lake Macquarie - Cooranbong

IDN60701

Issued at 3:12 pm EDT Monday 19 February 2018 (issued every 10 minutes, with the page automatically refreshed every 10 minutes)

About coastal observations | Map of coastal stations | Coastal observations for NSW | Marine services | Other Formats
Station Details ID: 061412 Name: LAKE MACQUARIE AWS Lat: -33.09 Lon: 151.46 Height: 6.0 m
Data from the previous 72 hours. | See also: Recent months at Lake Macquarie - Cooranbong
Date/Time
EDT
Temp
°C
Wind Pressure Rain since
9am
mm
Weather Cloud Vis
km
Sea
Height
m
Swell
Dir  Spd
kts
Gust
kts
hPa Trend Height
m
Period
s
Dir
19/03:00pm 27.0 ESE 8 14 1010.7 - 0.0 - - - - - - -
19/02:30pm 28.2 SE 6 9 1011.2 - 0.0 - - - - - - -
19/02:00pm 27.4 ESE 7 12 1011.6 - 0.0 - - - - - - -
19/01:30pm 27.8 ESE 7 12 1011.9 - 0.0 - - - - - - -
19/01:00pm 26.6 ESE 7 11 1011.7 - 0.0 - - - - - - -
19/12:30pm 27.6 ESE 7 12 1012.0 - 0.0 - - - - - - -
19/12:00pm 27.5 E 6 11 1011.9 - 0.0 - - - - - - -
19/11:30am 26.8 E 7 11 1012.0 - 0.0 - - - - - - -
19/11:00am 26.5 SE 7 13 1012.1 - 0.0 - - - - - - -
19/10:30am 26.9 ESE 6 11 1012.1 - 0.0 - - - - - - -
19/10:00am 26.4 E 6 12 1012.0 - 0.0 - - - - - - -
19/09:30am 24.9 SSE 2 7 1012.0 - 0.0 - - - - - - -
19/09:00am 22.6 CALM 0 0 1011.8 - 0.0 - - - - - - -
19/08:30am 21.0 CALM 0 0 1011.8 - 0.0 - - - - - - -
19/08:00am 20.0 CALM 0 3 1011.5 - 0.0 - - - - - - -
19/07:30am 19.3 CALM 0 0 1011.3 - 0.0 - - - - - - -
19/07:00am 18.7 CALM 0 0 1010.9 - 0.0 - - - - - - -
19/06:30am 18.9 CALM 0 0 1010.6 - 0.0 - - - - - - -
19/06:00am 19.2 NW 1 2 1010.2 - 0.0 - - - - - - -
19/05:30am 19.1 CALM 0 0 1010.0 - 0.0 - - - - - - -
19/05:00am 19.3 CALM 0 0 1009.7 - 0.0 - - - - - - -
19/04:30am 19.3 CALM 0 0 1009.7 - 0.0 - - - - - - -
19/04:00am 19.6 CALM 0 0 1009.8 - 0.0 - - - - - - -
19/03:30am 19.6 CALM 0 0 1009.7 - 0.0 - - - - - - -
19/03:00am 20.0 CALM 0 0 1009.8 - 0.0 - - - - - - -
19/02:30am 21.0 WNW 1 3 1009.8 - 0.0 - - - - - - -
19/02:00am 21.3 CALM 0 0 1010.0 - 0.0 - - - - - - -
19/01:30am 21.3 CALM 0 0 1010.3 - 0.0 - - - - - - -
19/01:00am 21.5 CALM 0 0 1010.6 - 0.0 - - - - - - -
19/12:30am 21.7 CALM 0 0 1010.7 - 0.0 - - - - - - -
19/12:00am 22.0 CALM 0 0 1010.7 - 0.0 - - - - - - -
 
Date/Time
EDT
Temp
°C
Wind Pressure Rain since
9am
mm
Weather Cloud Vis
km
Sea
Height
m
Swell
Dir  Spd
kts
Gust
kts
hPa Trend Height
m
Period
s
Dir
18/11:30pm 22.4 CALM 0 0 1010.7 - 0.0 - - - - - - -
18/11:00pm 22.6 CALM 0 0 1010.7 - 0.0 - - - - - - -
18/10:30pm 22.4 CALM 0 1 1010.6 - 0.0 - - - - - - -
18/10:00pm 22.9 CALM 0 0 1010.8 - 0.0 - - - - - - -
18/09:30pm 23.5 CALM 0 2 1010.7 - 0.0 - - - - - - -
18/09:00pm 24.1 CALM 0 1 1010.5 - 0.0 - - - - - - -
18/08:30pm 24.3 CALM 0 3 1010.4 - 0.0 - - - - - - -
18/08:00pm 24.6 E 2 3 1010.0 - 0.0 - - - - - - -
18/07:30pm 25.4 ENE 3 5 1009.7 - 0.0 - - - - - - -
18/07:00pm 26.3 ENE 5 9 1009.7 - 0.0 - - - - - - -
18/06:30pm 26.9 E 5 10 1009.6 - 0.0 - - - - - - -
18/06:00pm 27.1 E 7 11 1009.5 - 0.0 - - - - - - -
18/05:30pm 27.4 E 9 16 1009.5 - 0.0 - - - - - - -
18/05:00pm 28.3 E 10 16 1009.5 - 0.0 - - - - - - -
18/04:30pm 27.7 ESE 11 16 1009.8 - 0.0 - - - - - - -
18/04:00pm 28.6 E 9 16 1009.8 - 0.0 - - - - - - -
18/03:30pm 29.1 E 8 15 1010.1 - 0.0 - - - - - - -
18/03:00pm 28.4 E 9 14 1010.5 - 0.0 - - - - - - -
18/02:30pm 28.9 E 9 15 1010.7 - 0.0 - - - - - - -
18/02:00pm 29.3 E 8 14 1011.3 - 0.0 - - - - - - -
18/01:30pm 29.4 ENE 7 12 1011.6 - 0.0 - - - - - - -
18/01:00pm 28.8 E 9 15 1011.8 - 0.0 - - - - - - -
18/12:30pm 29.1 ENE 6 10 1012.0 - 0.0 - - - - - - -
18/12:00pm 29.1 ENE 5 8 1012.0 - 0.0 - - - - - - -
18/11:30am 28.7 SSW 2 7 1012.3 - 0.0 - - - - - - -
18/11:00am 27.3 S 3 5 1012.6 - 0.0 - - - - - - -
18/10:30am 26.7 SSW 2 3 1012.8 - 0.0 - - - - - - -
18/10:00am 25.8 NW 3 6 1013.2 - 0.0 - - - - - - -
18/09:30am 24.0 NW 2 3 1013.3 - 0.0 - - - - - - -
18/09:00am 22.7 N 1 3 1013.3 - 0.0 - - - - - - -
18/08:30am 20.5 CALM 0 0 1013.1 - 0.0 - - - - - - -
18/08:00am 19.4 N 1 2 1012.9 - 0.0 - - - - - - -
18/07:30am 18.8 CALM 0 0 1012.7 - 0.0 - - - - - - -
18/07:00am 18.0 CALM 0 0 1012.3 - 0.0 - - - - - - -
18/06:30am 17.3 CALM 0 0 1012.0 - 0.0 - - - - - - -
18/06:00am 17.3 CALM 0 0 1011.8 - 0.0 - - - - - - -
18/05:30am 17.0 CALM 0 0 1011.8 - 0.0 - - - - - - -
18/05:00am 17.0 CALM 0 0 1011.8 - 0.0 - - - - - - -
18/04:30am 17.1 CALM 0 0 1011.8 - 0.0 - - - - - - -
18/04:00am 17.1 CALM 0 1 1011.7 - 0.0 - - - - - - -
18/03:30am 17.5 CALM 0 0 1011.9 - 0.0 - - - - - - -
18/03:00am 17.7 CALM 0 0 1011.9 - 0.0 - - - - - - -
18/02:30am 17.8 CALM 0 0 1012.1 - 0.0 - - - - - - -
18/02:00am 18.1 CALM 0 0 1012.4 - 0.0 - - - - - - -
18/01:30am 18.5 CALM 0 0 1012.7 - 0.0 - - - - - - -
18/01:00am 18.7 CALM 0 0 1012.9 - 0.0 - - - - - - -
18/12:30am 19.2 CALM 0 0 1013.0 - 0.0 - - - - - - -
18/12:00am 19.7 CALM 0 0 1013.0 - 0.0 - - - - - - -
 
Date/Time
EDT
Temp
°C
Wind Pressure Rain since
9am
mm
Weather Cloud Vis
km
Sea
Height
m
Swell
Dir  Spd
kts
Gust
kts
hPa Trend Height
m
Period
s
Dir
17/11:30pm 20.3 CALM 0 0 1013.1 - 0.0 - - - - - - -
17/11:00pm 21.0 CALM 0 0 1013.2 - 0.0 - - - - - - -
17/10:30pm 22.1 N 1 1 1013.3 - 0.0 - - - - - - -
17/10:00pm 23.2 NNE 3 5 1013.2 - 0.0 - - - - - - -
17/09:30pm 23.2 NE 3 6 1013.0 - 0.0 - - - - - - -
17/09:00pm 23.4 NE 3 5 1012.7 - 0.0 - - - - - - -
17/08:30pm 23.8 ENE 5 9 1012.5 - 0.0 - - - - - - -
17/08:00pm 23.9 NE 4 9 1012.4 - 0.0 - - - - - - -
17/07:30pm 24.4 ENE 5 11 1012.5 - 0.0 - - - - - - -
17/07:00pm 24.9 ENE 5 9 1012.1 - 0.0 - - - - - - -
17/06:30pm 25.5 E 5 11 1012.0 - 0.0 - - - - - - -
17/06:00pm 25.7 E 8 16 1011.7 - 0.0 - - - - - - -
17/05:30pm 26.0 ENE 7 15 1011.7 - 0.0 - - - - - - -
17/05:00pm 25.4 E 9 16 1012.0 - 0.0 - - - - - - -
17/04:30pm 25.5 E 8 14 1012.3 - 0.0 - - - - - - -
17/04:00pm 25.4 E 8 15 1012.4 - 0.0 - - - - - - -
17/03:30pm 26.4 E 8 15 1012.5 - 0.0 - - - - - - -
17/03:00pm 25.8 E 10 16 1012.9 - 0.0 - - - - - - -
17/02:30pm 25.7 E 9 18 1013.2 - 0.0 - - - - - - -
17/02:00pm 27.7 ENE 9 17 1013.4 - 0.0 - - - - - - -
17/01:30pm 26.6 E 9 17 1013.6 - 0.0 - - - - - - -
17/01:00pm 27.0 ENE 7 13 1013.9 - 0.0 - - - - - - -
17/12:30pm 27.3 E 7 14 1014.2 - 0.0 - - - - - - -
17/12:00pm 26.6 E 6 11 1014.5 - 0.0 - - - - - - -
17/11:30am 27.0 E 6 11 1014.9 - 0.0 - - - - - - -
17/11:00am 25.9 ESE 8 14 1015.2 - 0.0 - - - - - - -
17/10:30am 25.4 ESE 6 10 1015.3 - 0.0 - - - - - - -
17/10:00am 25.6 E 4 10 1015.4 - 0.0 - - - - - - -
17/09:30am 25.6 ESE 7 12 1015.3 - 0.0 - - - - - - -
17/09:00am 24.3 SE 2 7 1015.4 - 0.0 - - - - - - -
17/08:30am 21.7 CALM 0 2 1015.4 - 0.0 - - - - - - -
17/08:00am 19.4 CALM 0 0 1015.3 - 0.0 - - - - - - -
17/07:30am 18.1 CALM 0 0 1015.2 - 0.0 - - - - - - -
17/07:00am 17.6 CALM 0 0 1015.0 - 0.0 - - - - - - -
17/06:30am 17.4 CALM 0 0 1014.7 - 0.0 - - - - - - -
17/06:00am 17.2 CALM 0 0 1014.7 - 0.0 - - - - - - -
17/05:30am 17.4 CALM 0 0 1014.3 - 0.0 - - - - - - -
17/05:00am 17.6 CALM 0 0 1014.0 - 0.0 - - - - - - -
17/04:30am 17.9 CALM 0 0 1013.9 - 0.0 - - - - - - -
17/04:00am 18.2 CALM 0 0 1013.9 - 0.0 - - - - - - -
17/03:30am 18.5 CALM 0 0 1013.9 - 0.0 - - - - - - -
17/03:00am 18.8 CALM 0 0 1014.2 - 0.0 - - - - - - -
17/02:30am 19.2 CALM 0 0 1014.2 - 0.0 - - - - - - -
17/02:00am 19.9 CALM 0 0 1014.6 - 0.0 - - - - - - -
17/01:30am 21.2 CALM 0 0 1014.7 - 0.0 - - - - - - -
17/01:00am 22.3 SSW 1 2 1015.0 - 0.0 - - - - - - -
17/12:30am 22.9 SSE 1 2 1015.1 - 0.0 - - - - - - -
17/12:00am 23.3 SE 3 5 1014.9 - 0.0 - - - - - - -
 
Date/Time
EDT
Temp
°C
Wind Pressure Rain since
9am
mm
Weather Cloud Vis
km
Sea
Height
m
Swell
Dir  Spd
kts
Gust
kts
hPa Trend Height
m
Period
s
Dir
16/11:30pm 23.2 SE 2 6 1014.8 - 0.0 - - - - - - -
16/11:00pm 23.4 ESE 3 6 1014.8 - 0.0 - - - - - - -
16/10:30pm 23.4 SE 3 7 1014.6 - 0.0 - - - - - - -
16/10:00pm 22.9 ESE 1 3 1014.5 - 0.0 - - - - - - -
16/09:30pm 22.8 SSE 2 3 1014.0 - 0.0 - - - - - - -
16/09:00pm 23.1 SE 2 4 1013.7 - 0.0 - - - - - - -
16/08:30pm 23.0 SE 3 5 1013.1 - 0.0 - - - - - - -
16/08:00pm 23.1 SE 2 5 1012.5 - 0.0 - - - - - - -
16/07:30pm 23.7 SE 4 6 1011.8 - 0.0 - - - - - - -
16/07:00pm 24.3 SE 5 8 1011.1 - 0.0 - - - - - - -
16/06:30pm 24.9 SE 6 11 1010.6 - 0.0 - - - - - - -
16/06:00pm 25.5 ESE 6 11 1010.4 - 0.0 - - - - - - -
16/05:30pm 25.7 SE 7 16 1010.2 - 0.0 - - - - - - -
16/05:00pm 26.0 SE 6 10 1010.3 - 0.0 - - - - - - -
16/04:30pm 27.3 SE 7 11 1010.1 - 0.0 - - - - - - -
16/04:00pm 26.0 SSE 5 8 1010.2 - 0.0 - - - - - - -
16/03:30pm 26.1 SE 7 13 1010.3 - 0.0 - - - - - - -

Other Formats:

Comma delimited format used in spreadsheet applications
http://www.bom.gov.au/fwo/IDN60701/IDN60701.95767.axf

JavaScript Object Notation format (JSON) in row-major order
http://www.bom.gov.au/fwo/IDN60701/IDN60701.95767.json